createdAt,value
2018-06-22T00:02:31.122Z,149369.97
2018-06-22T00:05:02.416Z,149356.25
2018-06-22T00:07:34.561Z,149353.75
2018-06-22T00:10:05.745Z,149343.77
2018-06-22T00:12:36.894Z,149338.73
2018-06-22T00:15:07.992Z,149321.28
2018-06-22T00:17:38.996Z,149317.53
2018-06-22T00:20:09.898Z,149321.28
2018-06-22T00:22:41.741Z,149308.80
2018-06-22T00:25:13.073Z,149288.75
2018-06-22T00:27:46.134Z,149276.28
2018-06-22T00:30:17.653Z,149292.50
2018-06-22T00:32:49.835Z,149296.28
2018-06-22T00:35:23.660Z,149292.50
2018-06-22T00:37:54.653Z,149278.78
2018-06-22T00:40:27.684Z,149263.81
2018-06-22T00:42:58.949Z,149246.36
2018-06-22T00:45:30.468Z,149247.61
2018-06-22T00:48:01.748Z,149233.84
2018-06-22T00:50:32.784Z,149228.86
2018-06-22T00:53:04.309Z,149220.13
2018-06-22T00:55:36.323Z,149210.16
2018-06-22T00:58:07.532Z,149202.67
2018-06-22T01:00:39.027Z,149196.39
2018-06-22T01:03:10.333Z,149188.91
2018-06-22T01:05:42.334Z,149190.16
2018-06-22T01:08:14.054Z,149165.23
2018-06-22T01:10:45.182Z,149188.91
2018-06-22T01:13:16.371Z,149212.66
2018-06-22T01:15:47.456Z,149221.38
2018-06-22T01:18:18.638Z,149241.33
2018-06-22T01:20:51.469Z,149250.09
2018-06-22T01:23:22.351Z,149267.56
2018-06-22T01:25:53.532Z,149296.28
2018-06-22T01:28:25.526Z,149300.03
2018-06-22T01:30:59.748Z,149313.78
2018-06-22T01:33:31.577Z,149328.75
2018-06-22T01:36:03.826Z,149346.27
2018-06-22T01:38:36.152Z,149346.27
2018-06-22T01:41:07.306Z,149358.73
2018-06-22T01:43:38.774Z,149369.97
2018-06-22T01:46:10.154Z,149358.73
2018-06-22T01:48:41.663Z,149356.25
2018-06-22T01:51:12.507Z,149318.78
2018-06-22T01:53:44.002Z,149296.28
2018-06-22T01:56:15.759Z,149282.52
2018-06-22T01:58:46.809Z,149257.59
2018-06-22T02:01:20.163Z,149268.81
2018-06-22T02:03:52.474Z,149252.59
2018-06-22T02:06:24.007Z,149227.61
2018-06-22T02:08:58.074Z,149230.11
2018-06-22T02:11:30.162Z,149193.91
2018-06-22T02:14:01.241Z,149188.91
2018-06-22T02:16:33.981Z,149188.91
2018-06-22T02:19:05.049Z,149167.72
2018-06-22T02:21:36.680Z,149166.47
2018-06-22T02:24:10.036Z,149163.98
2018-06-22T02:26:41.740Z,149148.97
2018-06-22T02:29:12.723Z,149160.25
2018-06-22T02:31:43.889Z,149163.98
2018-06-22T02:34:17.979Z,149163.98
2018-06-22T02:36:49.419Z,149165.23
2018-06-22T02:39:20.675Z,149161.48
2018-06-22T02:41:52.282Z,149156.50
2018-06-22T02:44:23.482Z,149167.72
2018-06-22T02:46:54.464Z,149181.44
2018-06-22T02:49:25.352Z,149206.41
2018-06-22T02:51:56.695Z,149212.66
2018-06-22T02:54:28.019Z,149211.41
2018-06-22T02:56:59.267Z,149227.61
2018-06-22T02:59:30.348Z,149237.59
2018-06-22T03:02:01.517Z,149266.31
2018-06-22T03:04:32.835Z,149265.06
2018-06-22T03:07:04.799Z,149291.25
2018-06-22T03:09:36.354Z,149321.28
2018-06-22T03:12:08.185Z,149338.73
2018-06-22T03:14:40.272Z,149357.48
2018-06-22T03:17:12.267Z,149363.72
2018-06-22T03:19:44.072Z,149382.44
2018-06-22T03:22:16.384Z,149424.89
2018-06-22T03:24:48.001Z,149478.58
2018-06-22T03:27:19.866Z,149538.63
2018-06-22T03:29:51.479Z,149608.55
2018-06-22T03:32:22.418Z,149667.27
2018-06-22T03:34:54.334Z,149746.06
2018-06-22T03:37:25.470Z,149791.06
2018-06-22T03:39:56.973Z,149828.56
2018-06-22T03:42:30.363Z,149852.34
2018-06-22T03:45:02.138Z,149844.84
2018-06-22T03:47:35.043Z,149866.13
2018-06-22T03:50:06.261Z,149846.09
2018-06-22T03:52:37.457Z,149746.06
2018-06-22T03:55:09.596Z,149761.03
2018-06-22T03:57:40.527Z,149847.34
2018-06-22T04:00:12.169Z,149988.64
2018-06-22T04:02:44.315Z,150022.47
2018-06-22T04:05:16.927Z,150002.38
2018-06-22T04:07:48.211Z,149976.14
2018-06-22T04:10:19.755Z,149912.39
2018-06-22T04:12:50.902Z,149851.09
2018-06-22T04:15:23.665Z,149941.11
2018-06-22T04:17:55.660Z,149943.61
2018-06-22T04:20:27.299Z,149883.61
2018-06-22T04:22:58.290Z,149998.62
2018-06-22T04:25:29.434Z,150171.31
2018-06-22T04:28:00.527Z,150221.41
2018-06-22T04:30:31.814Z,150218.91
2018-06-22T04:33:03.375Z,150118.78
2018-06-22T04:35:37.098Z,150123.78
2018-06-22T04:38:08.390Z,150265.22
2018-06-22T04:40:40.929Z,150392.95
2018-06-22T04:43:11.959Z,150679.83
2018-06-22T04:45:44.426Z,150783.81
2018-06-22T04:48:16.152Z,150981.95
2018-06-22T04:50:47.473Z,151126.20
2018-06-22T04:53:21.614Z,151291.86
2018-06-22T04:55:54.336Z,151254.22
2018-06-22T04:58:26.305Z,151443.75
2018-06-22T05:00:57.723Z,151558.00
2018-06-22T05:03:30.093Z,151478.91
2018-06-22T05:06:03.047Z,151416.11
2018-06-22T05:08:35.608Z,151344.56
2018-06-22T05:11:07.258Z,151270.50
2018-06-22T05:13:38.874Z,151241.69
2018-06-22T05:16:10.616Z,151076.00
2018-06-22T05:18:42.214Z,150802.66
2018-06-22T05:21:13.378Z,150644.70
2018-06-22T05:23:44.562Z,150662.27
2018-06-22T05:26:17.088Z,150648.50
2018-06-22T05:28:49.187Z,150622.17
2018-06-22T05:31:20.261Z,150613.36
2018-06-22T05:33:52.022Z,150574.58
2018-06-22T05:36:23.861Z,150687.34
2018-06-22T05:38:54.906Z,150753.73
2018-06-22T05:41:26.162Z,150672.33
2018-06-22T05:43:58.421Z,150664.77
2018-06-22T05:46:29.915Z,150737.45
2018-06-22T05:49:01.150Z,150872.86
2018-06-22T05:51:32.431Z,150951.84
2018-06-22T05:54:03.621Z,150988.22
2018-06-22T05:56:35.097Z,151162.59
2018-06-22T05:59:06.598Z,151424.89
2018-06-22T06:01:37.508Z,151535.44
2018-06-22T06:04:11.904Z,151547.97
2018-06-22T06:06:44.287Z,151787.92
2018-06-22T06:09:19.847Z,152170.09
2018-06-22T06:11:51.906Z,152168.83
2018-06-22T06:14:23.228Z,152472.00
2018-06-22T06:16:54.318Z,152509.75
2018-06-22T06:19:26.500Z,152717.52
2018-06-22T06:21:57.883Z,153002.17
2018-06-22T06:24:29.122Z,153184.88
2018-06-22T06:27:00.258Z,153129.45
2018-06-22T06:29:32.879Z,153108.06
2018-06-22T06:32:07.588Z,153123.16
2018-06-22T06:34:39.017Z,152668.37
2018-06-22T06:37:10.503Z,152235.45
2018-06-22T06:39:42.741Z,152269.41
2018-06-22T06:42:14.913Z,152178.87
2018-06-22T06:44:46.334Z,152068.22
2018-06-22T06:47:17.696Z,152346.20
2018-06-22T06:49:48.895Z,152941.69
2018-06-22T06:52:20.092Z,153236.58
2018-06-22T06:54:52.582Z,153623.70
2018-06-22T06:57:23.644Z,153413.09
2018-06-22T06:59:55.297Z,153309.69
2018-06-22T07:02:28.263Z,153612.38
2018-06-22T07:04:59.692Z,153579.63
2018-06-22T07:07:30.861Z,153744.84
2018-06-22T07:10:02.298Z,153876.16
2018-06-22T07:12:34.020Z,154021.30
2018-06-22T07:15:06.173Z,153688.09
2018-06-22T07:17:37.431Z,153084.06
2018-06-22T07:20:08.362Z,152951.75
2018-06-22T07:22:39.720Z,152940.42
2018-06-22T07:25:10.726Z,153545.56
2018-06-22T07:27:41.842Z,153661.59
2018-06-22T07:30:12.984Z,153765.06
2018-06-22T07:32:45.726Z,153766.31
2018-06-22T07:35:16.809Z,153844.55
2018-06-22T07:37:48.123Z,154160.19
2018-06-22T07:40:19.412Z,154104.66
2018-06-22T07:42:50.652Z,153747.38
2018-06-22T07:45:21.905Z,153723.44
2018-06-22T07:47:53.210Z,153900.09
2018-06-22T07:50:24.165Z,153611.11
2018-06-22T07:52:55.532Z,153583.39
2018-06-22T07:55:27.055Z,153572.00
2018-06-22T07:57:58.226Z,153434.59
2018-06-22T08:00:29.829Z,153473.63
2018-06-22T08:03:00.889Z,152941.69
2018-06-22T08:05:34.196Z,152869.89
2018-06-22T08:08:05.908Z,152472.00
2018-06-22T08:10:36.946Z,152815.75
2018-06-22T08:13:08.709Z,153000.91
2018-06-22T08:15:41.265Z,152779.23
2018-06-22T08:18:15.065Z,152823.30
2018-06-22T08:20:47.355Z,152663.36
2018-06-22T08:23:18.729Z,152440.58
2018-06-22T08:25:49.695Z,152454.41
2018-06-22T08:28:20.944Z,151985.22
2018-06-22T08:30:52.080Z,151950.02
2018-06-22T08:33:23.569Z,151960.11
2018-06-22T08:35:54.950Z,151928.69
2018-06-22T08:38:26.343Z,151942.48
2018-06-22T08:40:57.444Z,152031.77
2018-06-22T08:43:29.589Z,151941.23
2018-06-22T08:46:00.564Z,151877.13
2018-06-22T08:48:31.999Z,151779.13
2018-06-22T08:51:03.151Z,151704.97
2018-06-22T08:53:34.409Z,151682.38
2018-06-22T08:56:05.623Z,151637.17
2018-06-22T08:58:38.476Z,151534.17
2018-06-22T09:01:09.715Z,151357.09
2018-06-22T09:03:41.749Z,151397.30
2018-06-22T09:06:12.864Z,151392.28
2018-06-22T09:08:43.837Z,151309.41
2018-06-22T09:11:14.974Z,151265.50
2018-06-22T09:13:48.728Z,151219.03
2018-06-22T09:16:20.064Z,151259.22
2018-06-22T09:18:51.258Z,151270.50
2018-06-22T09:21:22.649Z,151185.14
2018-06-22T09:23:53.684Z,151207.75
2018-06-22T09:26:25.729Z,151150.06
2018-06-22T09:28:57.597Z,151123.70
2018-06-22T09:31:29.043Z,151091.08
2018-06-22T09:34:00.431Z,151168.84
2018-06-22T09:36:32.536Z,151044.63
2018-06-22T09:39:03.714Z,151054.70
2018-06-22T09:41:34.774Z,151102.41
2018-06-22T09:44:06.087Z,151134.97
2018-06-22T09:46:37.080Z,151102.41
2018-06-22T09:49:08.297Z,151040.87
2018-06-22T09:51:39.429Z,151096.09
2018-06-22T09:54:10.617Z,151175.11
2018-06-22T09:56:42.766Z,151118.69
2018-06-22T09:59:13.834Z,151157.58
2018-06-22T10:01:45.264Z,151070.98
2018-06-22T10:04:17.221Z,151098.64
2018-06-22T10:06:48.774Z,150975.69
2018-06-22T10:09:19.850Z,150970.67
2018-06-22T10:11:51.039Z,151009.56
2018-06-22T10:14:23.173Z,151057.20
2018-06-22T10:16:54.300Z,151013.31
2018-06-22T10:19:25.546Z,151019.58
2018-06-22T10:21:56.748Z,151060.97
2018-06-22T10:24:28.128Z,151020.83
2018-06-22T10:26:59.417Z,151086.06
2018-06-22T10:29:30.893Z,151055.95
2018-06-22T10:32:02.032Z,151055.95
2018-06-22T10:34:33.417Z,150983.20
2018-06-22T10:37:04.540Z,150943.08
2018-06-22T10:39:35.724Z,150905.41
2018-06-22T10:42:06.853Z,150808.91
2018-06-22T10:44:38.558Z,150822.72
2018-06-22T10:47:10.144Z,150802.66
2018-06-22T10:49:41.436Z,150816.47
2018-06-22T10:52:12.474Z,150850.28
2018-06-22T10:54:43.453Z,150855.28
2018-06-22T10:57:14.720Z,150820.22
2018-06-22T10:59:46.168Z,150817.72
2018-06-22T11:02:18.081Z,150792.59
2018-06-22T11:04:49.798Z,150839.00
2018-06-22T11:07:22.757Z,150741.22
2018-06-22T11:09:53.893Z,150812.72
2018-06-22T11:12:25.086Z,150564.52
2018-06-22T11:14:56.166Z,150572.03
2018-06-22T11:17:28.208Z,150604.61
2018-06-22T11:20:00.398Z,150604.61
2018-06-22T11:22:32.515Z,150574.58
2018-06-22T11:25:03.961Z,150573.28
2018-06-22T11:27:36.452Z,150674.83
2018-06-22T11:30:07.810Z,150568.28
2018-06-22T11:32:38.911Z,150538.25
2018-06-22T11:35:10.121Z,150484.36
2018-06-22T11:37:41.247Z,150508.17
2018-06-22T11:40:12.557Z,150534.50
2018-06-22T11:42:43.661Z,150459.28
2018-06-22T11:45:15.630Z,150484.36
2018-06-22T11:47:46.571Z,150574.58
2018-06-22T11:50:17.820Z,150614.62
2018-06-22T11:52:49.079Z,150634.69
2018-06-22T11:55:20.165Z,150682.34
2018-06-22T11:57:51.369Z,150742.47
2018-06-22T12:00:22.901Z,150810.16
2018-06-22T12:02:54.238Z,150815.22
2018-06-22T12:05:26.064Z,150812.72
2018-06-22T12:07:57.195Z,150692.34
2018-06-22T12:10:29.168Z,150613.36
2018-06-22T12:13:00.370Z,150449.28
2018-06-22T12:15:31.480Z,150578.33
2018-06-22T12:18:02.741Z,150453.03
2018-06-22T12:20:33.830Z,150479.34
2018-06-22T12:23:14.231Z,150595.84
2018-06-22T12:25:45.223Z,150599.59
2018-06-22T12:28:16.421Z,150595.84
2018-06-22T12:30:48.416Z,150545.75
2018-06-22T12:33:20.470Z,150559.52
2018-06-22T12:35:51.649Z,150559.52
2018-06-22T12:38:22.680Z,150503.17
2018-06-22T12:40:54.332Z,150451.78
2018-06-22T12:43:25.512Z,150552.00
2018-06-22T12:45:56.878Z,150646.00
2018-06-22T12:48:28.852Z,150590.84
2018-06-22T12:51:00.554Z,150592.09
2018-06-22T12:53:31.405Z,150549.50
2018-06-22T12:56:02.562Z,150630.94
2018-06-22T12:58:33.788Z,150711.13
2018-06-22T13:01:05.075Z,150698.61
2018-06-22T13:03:36.445Z,150578.33
2018-06-22T13:06:08.582Z,150543.25
2018-06-22T13:08:40.895Z,150614.62
2018-06-22T13:11:12.167Z,150649.75
2018-06-22T13:13:43.451Z,150563.27
2018-06-22T13:16:14.770Z,150554.50
2018-06-22T13:18:46.880Z,150544.50
2018-06-22T13:21:18.011Z,150528.23
2018-06-22T13:23:49.093Z,150542.00
2018-06-22T13:26:19.996Z,150573.28
2018-06-22T13:28:52.051Z,150483.09
2018-06-22T13:31:23.186Z,150519.44
2018-06-22T13:33:54.222Z,150516.92
2018-06-22T13:36:25.281Z,150545.75
2018-06-22T13:38:56.215Z,150529.48
2018-06-22T13:41:27.599Z,150367.89
2018-06-22T13:43:59.374Z,150354.14
2018-06-22T13:46:30.668Z,150427.97
2018-06-22T13:49:03.047Z,150376.66
2018-06-22T13:51:34.565Z,150433.03
2018-06-22T13:54:05.731Z,150496.91
2018-06-22T13:56:37.911Z,150506.92
2018-06-22T13:59:09.126Z,150446.78
2018-06-22T14:01:40.099Z,150509.42
2018-06-22T14:04:16.759Z,150519.44
2018-06-22T14:06:52.384Z,150589.59
2018-06-22T14:09:23.698Z,150579.58
2018-06-22T14:11:54.999Z,150585.83
2018-06-22T14:14:26.760Z,150568.28
2018-06-22T14:16:58.030Z,150550.75
2018-06-22T14:19:29.148Z,150499.41
2018-06-22T14:22:00.148Z,150587.09
2018-06-22T14:24:31.083Z,150565.77
2018-06-22T14:27:02.208Z,150589.59
2018-06-22T14:29:34.491Z,150603.36
2018-06-22T14:32:05.693Z,150658.52
2018-06-22T14:34:36.838Z,150682.34
2018-06-22T14:37:09.073Z,150698.61
2018-06-22T14:39:40.089Z,150714.87
2018-06-22T14:42:11.328Z,150714.87
2018-06-22T14:44:42.234Z,150733.70
2018-06-22T14:47:13.425Z,150723.69
2018-06-22T14:49:44.523Z,150754.98
2018-06-22T14:52:15.491Z,150775.06
2018-06-22T14:54:51.919Z,150815.22
2018-06-22T14:57:28.337Z,150822.72
2018-06-22T15:00:04.254Z,150835.25
2018-06-22T15:02:40.956Z,150860.34
2018-06-22T15:05:16.907Z,150797.64
2018-06-22T15:07:57.817Z,150827.73
2018-06-22T15:10:29.004Z,150835.25
2018-06-22T15:13:00.175Z,150684.84
2018-06-22T15:15:31.216Z,150504.42
2018-06-22T15:18:02.290Z,150521.94
2018-06-22T15:20:33.426Z,150501.92
2018-06-22T15:23:05.661Z,150544.50
2018-06-22T15:25:37.883Z,150602.09
2018-06-22T15:28:08.981Z,150653.50
2018-06-22T15:30:40.085Z,150584.59
2018-06-22T15:33:16.825Z,150643.44
2018-06-22T15:35:52.615Z,150545.75
2018-06-22T15:38:28.571Z,150590.84
2018-06-22T15:41:04.759Z,150485.61
2018-06-22T15:43:40.778Z,150480.61
2018-06-22T15:46:16.788Z,150543.25
2018-06-22T15:48:53.226Z,150545.75
2018-06-22T15:51:29.306Z,150528.23
2018-06-22T15:54:05.378Z,150389.20
2018-06-22T15:56:36.620Z,150360.39
2018-06-22T15:59:07.751Z,150329.03
2018-06-22T16:01:39.374Z,150377.91
2018-06-22T16:04:11.869Z,150422.97
2018-06-22T16:06:43.130Z,150397.95
2018-06-22T16:09:14.220Z,150295.27
2018-06-22T16:11:45.346Z,150218.91
2018-06-22T16:14:21.304Z,150228.91
2018-06-22T16:16:57.205Z,150251.47
2018-06-22T16:19:33.499Z,150283.97
2018-06-22T16:22:09.844Z,150101.28
2018-06-22T16:25:48.980Z,150034.95
2018-06-22T16:28:19.992Z,150043.70
2018-06-22T16:30:51.213Z,150007.42
2018-06-22T16:33:22.362Z,150058.75
2018-06-22T16:35:53.528Z,150013.72
2018-06-22T16:38:24.752Z,150038.70
2018-06-22T16:40:56.575Z,150067.50
2018-06-22T16:43:29.448Z,150111.28
2018-06-22T16:46:00.497Z,150111.28
2018-06-22T16:48:31.481Z,150136.28
2018-06-22T16:51:02.831Z,150125.03
2018-06-22T16:53:33.942Z,150105.03
2018-06-22T16:56:06.067Z,150065.00
2018-06-22T16:58:40.076Z,150101.28
2018-06-22T17:01:12.402Z,150083.73
2018-06-22T17:03:43.452Z,150062.50
2018-06-22T17:06:14.923Z,150042.45
2018-06-22T17:08:50.863Z,150016.22
2018-06-22T17:11:26.967Z,149987.39
2018-06-22T17:14:02.860Z,149983.63
2018-06-22T17:16:38.710Z,149929.88
2018-06-22T17:19:09.924Z,149923.62
2018-06-22T17:21:41.749Z,149931.13
2018-06-22T17:24:14.166Z,149903.59
2018-06-22T17:26:45.465Z,149902.34
2018-06-22T17:29:16.714Z,149878.61
2018-06-22T17:31:47.908Z,149836.06
2018-06-22T17:34:19.013Z,149848.59
2018-06-22T17:36:50.205Z,149822.31
2018-06-22T17:39:21.368Z,149796.05
2018-06-22T17:41:52.415Z,149776.06
2018-06-22T17:44:23.547Z,149748.56
2018-06-22T17:46:55.068Z,149733.56
2018-06-22T17:49:26.880Z,149734.81
2018-06-22T17:51:58.255Z,149728.58
2018-06-22T17:54:29.406Z,149643.55
2018-06-22T17:57:01.341Z,149677.34
2018-06-22T17:59:37.284Z,149651.03
2018-06-22T18:02:13.634Z,149637.31
2018-06-22T18:04:46.633Z,149638.55
2018-06-22T18:07:23.244Z,149638.55
2018-06-22T18:09:59.528Z,149614.80
2018-06-22T18:12:37.186Z,149597.31
2018-06-22T18:15:08.428Z,149582.34
2018-06-22T18:17:39.625Z,149581.09
2018-06-22T18:20:10.860Z,149583.59
2018-06-22T18:22:41.986Z,149584.84
2018-06-22T18:25:14.103Z,149592.33
2018-06-22T18:27:46.401Z,149576.06
2018-06-22T18:30:18.037Z,149567.31
2018-06-22T18:32:49.246Z,149563.58
2018-06-22T18:35:20.868Z,149573.56
2018-06-22T18:37:51.991Z,149588.59
2018-06-22T18:40:23.078Z,149591.08
2018-06-22T18:42:55.309Z,149596.06
2018-06-22T18:45:27.044Z,149587.34
2018-06-22T18:47:58.283Z,149528.59
2018-06-22T18:50:29.172Z,149518.61
2018-06-22T18:53:06.363Z,149509.88
2018-06-22T18:55:42.248Z,149494.91
2018-06-22T18:58:17.930Z,149497.39
2018-06-22T19:00:54.545Z,149481.08
2018-06-22T19:03:30.519Z,149476.09
2018-06-22T19:06:01.630Z,149459.88
2018-06-22T19:08:32.765Z,149459.88
2018-06-22T19:11:04.043Z,149452.39
2018-06-22T19:13:38.144Z,149452.39
2018-06-22T19:16:09.271Z,149421.16
2018-06-22T19:18:40.834Z,149416.16
2018-06-22T19:21:12.125Z,149417.41
2018-06-22T19:23:43.195Z,149422.41
2018-06-22T19:26:14.379Z,149413.66
2018-06-22T19:28:45.525Z,149431.13
2018-06-22T19:31:16.656Z,149451.14
2018-06-22T19:33:47.973Z,149483.63
2018-06-22T19:36:19.438Z,149518.61
2018-06-22T19:38:51.208Z,149521.11
2018-06-22T19:41:22.334Z,149521.11
2018-06-22T19:43:58.397Z,149528.59
2018-06-22T19:46:34.473Z,149556.09
2018-06-22T19:49:10.540Z,149539.88
2018-06-22T19:52:45.855Z,149533.62
2018-06-22T19:55:17.313Z,149449.89
2018-06-22T19:57:48.522Z,149436.17
2018-06-22T20:00:20.888Z,149468.59
2018-06-22T20:02:51.957Z,149469.84
2018-06-22T20:05:25.119Z,149452.39
2018-06-22T20:07:56.841Z,149442.41
2018-06-22T20:10:28.424Z,149441.16
2018-06-22T20:12:59.565Z,149416.16
2018-06-22T20:15:30.823Z,149433.63
2018-06-22T20:18:02.224Z,149452.39
2018-06-22T20:20:33.668Z,149394.95
2018-06-22T20:23:05.926Z,149413.66
2018-06-22T20:25:41.795Z,149376.20
2018-06-22T20:28:12.738Z,149359.98
2018-06-22T20:30:44.541Z,149357.48
2018-06-22T20:33:16.244Z,149369.97
2018-06-22T20:35:52.062Z,149378.69
2018-06-22T20:38:28.131Z,149414.91
2018-06-22T20:41:04.057Z,149409.92
2018-06-22T20:43:40.115Z,149401.19
2018-06-22T20:46:11.394Z,149408.67
2018-06-22T20:48:47.235Z,149403.69
2018-06-22T20:51:18.587Z,149345.02
2018-06-22T20:53:49.632Z,149316.28
2018-06-22T20:56:21.029Z,149295.03
2018-06-22T20:58:51.951Z,149277.53
2018-06-22T21:01:23.011Z,149268.81
2018-06-22T21:03:53.934Z,149268.81
2018-06-22T21:06:24.903Z,149278.78
2018-06-22T21:08:56.210Z,149293.80
2018-06-22T21:11:27.707Z,149328.75
2018-06-22T21:13:59.781Z,149302.52
2018-06-22T21:16:31.265Z,149288.75
2018-06-22T21:19:02.943Z,149296.28
2018-06-22T21:21:39.773Z,149297.53
2018-06-22T21:24:10.873Z,149335.00
2018-06-22T21:26:42.391Z,149358.73
2018-06-22T21:29:19.015Z,149391.22
2018-06-22T21:31:55.249Z,149394.95
2018-06-22T21:34:31.398Z,149398.69
2018-06-22T21:37:08.170Z,149419.91
2018-06-22T21:39:39.210Z,149396.20
2018-06-22T21:42:10.584Z,149378.69
2018-06-22T21:44:41.618Z,149335.00
2018-06-22T21:47:13.051Z,149303.77
2018-06-22T21:49:44.108Z,149292.50
2018-06-22T21:52:15.928Z,149243.81
2018-06-22T21:54:46.994Z,149236.34
2018-06-22T21:57:18.318Z,149246.36
2018-06-22T21:59:49.284Z,149218.88
2018-06-22T22:02:20.735Z,149213.89
2018-06-22T22:04:51.789Z,149193.91
2018-06-22T22:07:22.764Z,149183.94
2018-06-22T22:09:53.935Z,149156.50
2018-06-22T22:12:25.152Z,149132.78
2018-06-22T22:14:56.254Z,149069.12
2018-06-22T22:17:27.467Z,149090.30
2018-06-22T22:20:00.971Z,149094.03
2018-06-22T22:22:32.042Z,149079.09
2018-06-22T22:25:04.293Z,149125.30
2018-06-22T22:27:35.345Z,149131.53
2018-06-22T22:30:08.294Z,149131.53
2018-06-22T22:32:40.252Z,149111.53
2018-06-22T22:35:11.336Z,149100.27
2018-06-22T22:37:42.837Z,149091.55
2018-06-22T22:40:13.827Z,149061.64
2018-06-22T22:42:44.831Z,149011.75
2018-06-22T22:45:15.779Z,149022.97
2018-06-22T22:47:47.931Z,149024.20
2018-06-22T22:50:19.018Z,149051.63
2018-06-22T22:52:51.206Z,149075.34
2018-06-22T22:55:23.438Z,149074.09
2018-06-22T22:57:54.828Z,149065.38
2018-06-22T23:00:26.749Z,149051.63
2018-06-22T23:02:57.676Z,149045.39
2018-06-22T23:05:28.686Z,149059.16
2018-06-22T23:07:59.658Z,149029.19
2018-06-22T23:10:31.415Z,148989.27
2018-06-22T23:13:02.329Z,148975.56
2018-06-22T23:15:33.465Z,148961.86
2018-06-22T23:18:04.526Z,148973.08
2018-06-22T23:20:35.623Z,148985.53
2018-06-22T23:23:17.340Z,149000.48
2018-06-22T23:25:48.492Z,148941.88
2018-06-22T23:28:19.588Z,148946.86
2018-06-22T23:30:50.805Z,148905.66
2018-06-22T23:33:22.329Z,148931.91
2018-06-22T23:35:53.527Z,148949.36
2018-06-22T23:38:24.886Z,148960.56
2018-06-22T23:40:56.167Z,148940.64
2018-06-22T23:43:27.534Z,148939.39
2018-06-22T23:45:58.587Z,148960.56
2018-06-22T23:48:30.903Z,148970.58
2018-06-22T23:51:02.940Z,148989.27
2018-06-22T23:53:34.803Z,149002.97
2018-06-22T23:56:05.892Z,149010.50
2018-06-22T23:58:37.077Z,149017.97
